Tiempo atmosférico en la estación meteorológica de Jaén, Jaén (582 m.)



Fecha
DESCASC
Temp. máxima en grados centígrados (hora)
DESCASC
Temp. mínima en grados centígrados (hora)
DESCASC
Temp. media en grados centígrados
DESCASC
Racha de viento máxima en m/sg (hora)
DESCASC
Velocidad máxima media en intervalos de 10 minutos(hora)
DESCASC
Precipitaciones diarias en mm
DESCASC
Precipitaciones de 00:00 a 06:00 en mm
DESCASC
Precipitaciones de 06:00 a 12:00 en mm
DESCASC
Precipitaciones de 12:00 a 18:00 en mm
DESCASC
Precipitaciones de 18:00 a 24:00 en mm
DESCASC
10-11-2019 12 (00:10) 8 (00:00) 10 13.33 (01:30) 7.5 (01:40) 0 0 0 0 0
09-11-2019 15.1 (13:50) 4.6 (00:00) 9.9 10.56 (23:59) 5.83 (14:30) 0 0 0 0 0
08-11-2019 11.9 (14:50) 7.3 (00:00) 9.6 11.11 (07:20) 6.11 (07:20) 0 0 0 0 0
07-11-2019 15 (12:50) 9.7 (00:00) 12.3 12.22 (13:00) 6.39 (23:30) 0.4 0 0.4 0 0
06-11-2019 14.4 (13:30) 8 (00:00) 11.2 8.89 (14:20) 5 (14:10) 0 0 0 0 0
05-11-2019 15.1 (00:00) 9.9 (00:00) 12.5 15 (00:10) 8.06 (05:20) 4.8 4.8 0 0 0
04-11-2019 17.9 (14:10) 14.4 (00:00) 16.1 16.39 (21:30) 6.94 (21:30) 0 0 0 0 0
03-11-2019 19.3 (16:30) 14.6 (00:00) 16.9 16.39 (10:30) 8.33 (11:10) 0.2 0.2 0 0 0
02-11-2019 20.7 (15:00) 15.9 (00:00) 18.3 16.94 (21:00) 8.61 (22:00) 4.4 0.8 2.6 1 0
01-11-2019 22.5 (16:00) 17.5 (00:00) 20 13.06 (19:40) 6.67 (19:00) 0 0 0 0 0
31-10-2019 22.3 (15:40) 16.9 (07:20) 19.6 9.17 (13:30) 4.72 (19:40) 0 0 0 0 0
30-10-2019 22.5 (15:20) 13.4 (00:00) 17.9 6.94 (22:30) 4.17 (22:20) 0 0 0 0 0
29-10-2019 22 (14:40) 12.6 (00:00) 17.3 5 (15:20) 2.78 (15:20) 0 0 0 0 0
28-10-2019 22.9 (14:40) 14.5 (00:00) 18.7 6.39 (15:30) 4.17 (15:30) 0 0 0 0 0
27-10-2019 24.9 (13:40) 14.1 (00:00) 19.5 4.72 (16:00) 3.06 (12:30) 0 0 0 0 0
26-10-2019 25.5 (16:20) 13.3 (00:00) 19.4 4.72 (08:10) 3.61 (22:40) 0 0 0 0 0
25-10-2019 23.7 (16:30) 8.9 (00:00) 16.3 4.44 (01:30) 3.33 (21:00) 0 0 0 0 0
24-10-2019 16.1 (15:10) 10.1 (00:00) 13.1 9.72 (05:00) 5.28 (00:50) 0.2 0.2 0 0 0
23-10-2019 14.6 (15:50) 10.1 (00:00) 12.4 12.22 (16:20) 6.11 (20:00) 2.8 0 0 0.2 2.6
22-10-2019 16.5 (15:50) 10.3 (00:00) 13.4 11.39 (22:20) 6.11 (22:10) 0 0 0 0 0
21-10-2019 16.7 (16:40) 8.1 (00:00) 12.4 5.83 (01:40) 3.06 (01:30) 0 0 0 0 0
20-10-2019 18.1 (00:10) 11.4 (00:00) 14.8 14.17 (03:10) 7.5 (03:10) 9.2 9.2 0 0 0
19-10-2019 22.8 (15:50) 13.4 (00:00) 18.1 12.22 (23:40) 6.11 (23:40) 0.6 0 0 0 0.6
18-10-2019 23.6 (15:50) 12.5 (00:00) 18.1 8.61 (16:00) 5.28 (16:00) 0 0 0 0 0
17-10-2019 22.6 (16:20) 10.4 (00:00) 16.5 5.56 (17:30) 3.33 (17:40) 0 0 0 0 0
16-10-2019 21.7 (16:30) 9 (00:00) 15.4 4.72 (14:40) 2.78 (20:30) 0 0 0 0 0
15-10-2019 18.4 (15:50) 8.8 (00:00) 13.6 6.39 (00:10) 3.89 (01:00) 0 0 0 0 0
14-10-2019 25.8 (05:50) 11.5 (00:00) 18.6 13.61 (06:00) 6.11 (17:20) 3.2 0 0 0 3.2

Gráficas

Temp. máximas Temp. mínimas Temp. medias Precipitaciones Rachas de viento máximas Velocidades máximas media en intervalos de 10 minutos

Datos horarios

Fecha y hora oficial Temperatura (ºC) Velocidad del viento (km/h) Dirección del viento Racha (km/h) Dirección de racha Precipitación (mm) Presión (hPa) Tendencia (hPa) Humedad (%)
2019-11-12 23:00:00 11.3 8 Oeste 21 Oeste 0 948.1 0 54
2019-11-12 22:00:00 11 4 Oeste 17 Oeste 0 948.4 0.4 59
2019-11-12 21:00:00 10.8 7 Oeste 19 Oeste 0 948.5 0.5 66
2019-11-12 20:00:00 11.6 8 Oeste 21 Oeste 0 948.1 0.3 61
2019-11-12 19:00:00 10.7 6 Sudoeste 14 Sudoeste 0 948 0.1 63
2019-11-12 18:00:00 11.2 6 Sudoeste 19 Noroeste 0 948 0.1 61
2019-11-12 17:00:00 13 13 Noroeste 23 Noroeste 0 947.8 -0.5 53
2019-11-12 16:00:00 13.4 11 Noroeste 21 Norte 0 947.9 -1.2 53
2019-11-12 15:00:00 14.2 11 Noroeste 24 Norte 0 947.9 -1.7 49
2019-11-12 14:00:00 14.8 4 Nordeste 17 Norte 0 948.3 -1.1 46
2019-11-12 13:00:00 14 5 Nordeste 12 Norte 0 949.1 -1 52
2019-11-12 12:00:00 13 5 Norte 11 Este 0 949.6 0.3 57
2019-11-12 11:00:00 11.7 4 Sudeste 7 Este 0 949.4 0.9 75
2019-11-12 10:00:00 10.2 4 Nordeste 8 Nordeste 0 950.1 1.5 82
2019-11-12 09:00:00 9.4 2 Norte 7 Noroeste 0 949.3 0.8 88
2019-11-12 08:00:00 8 0 Calma 11 Sur 0 948.5 -0.4 92
2019-11-12 07:00:00 8.8 2 Sudeste 10 Sudeste 0 948.6 -0.2 93
2019-11-12 06:00:00 9 5 Sudeste 9 Sur 0 948.5 -0.8 97
2019-11-12 05:00:00 8.2 2 Sudoeste 4 Sudoeste 0 948.9 -0.8 96
2019-11-12 04:00:00 8 3 Sudoeste 6 Sur 0 948.8 -1.1 95
2019-11-12 03:00:00 8.6 2 Oeste 6 Sur 0 949.3 -0.7 93
2019-11-12 02:00:00 8.9 0 Calma 6 Sur 0 949.7 -0.7 93
2019-11-12 01:00:00 8.8 2 Oeste 8 Sudoeste 0 949.9 -0.1 87
2019-11-12 00:00:00 10.5 8 Sudoeste 11 Sudoeste 0 950 0 81
2019-11-11 23:00:00 10.5 4 Oeste 8 Sudoeste 0 950.4 0.6 84
2019-11-11 22:00:00 10.7 3 Sur 10 Sudoeste 0 950 0.4 82
2019-11-11 21:00:00 11 0 Calma 9 Noroeste 0 950 0.5 79
2019-11-11 20:00:00 11.2 3 Noroeste 10 Oeste 0 949.8 0.5 81
2019-11-11 19:00:00 11.2 4 Noroeste 15 Oeste 0 949.6 0.7 81
2019-11-11 18:00:00 11.3 9 Noroeste 19 Noroeste 0 949.5 0.3 77
2019-11-11 17:00:00 11.4 12 Oeste 19 Oeste 0 949.3 -0.4 72
2019-11-11 16:00:00 12.1 6 Noroeste 21 Noroeste 0 948.9 -1.4 70
2019-11-11 15:00:00 12 6 Oeste 17 Oeste 0 949.2 -1.9 68
2019-11-11 14:00:00 11.8 10 Oeste 23 Oeste 0 949.7 -1.7 58
2019-11-11 13:00:00 11.6 12 Noroeste 19 Noroeste 0 950.3 -1.3 59
2019-11-11 12:00:00 11.4 4 Norte 12 Norte 0 951.1 -0.5 63
2019-11-11 11:00:00 9.9 4 Este 8 Sudeste 0 951.4 -0.1 68
2019-11-11 10:00:00 8.9 4 Sudeste 12 Sudeste 0 951.6 0.5 70
2019-11-11 09:00:00 7.5 5 Sudeste 10 Sudeste 0 951.6 0.5 77
2019-11-11 08:00:00 5.7 4 Sudoeste 7 Sudoeste 0 951.5 0 82
2019-11-11 07:00:00 5.8 3 Sudoeste 9 Oeste 0 951.1 -0.1 80
2019-11-11 06:00:00 5.8 4 Sudoeste 6 Sudoeste 0 951.1 -0.5 79
2019-11-11 05:00:00 6.7 2 Noroeste 15 Oeste 0 951.5 -0.4 76
2019-11-11 04:00:00 6.9 11 Oeste 17 Oeste 0 951.2 -0.9 77
2019-11-11 03:00:00 8 13 Oeste 22 Oeste 0 951.6 -0.7 74
2019-11-11 02:00:00 7.8 15 Oeste 22 Oeste 0 951.9 0.3 76
2019-11-11 01:00:00 8 11 Oeste 24 Oeste 0 952.1 0.6 74
2019-11-11 00:00:00 8.1 18 Oeste 26 Oeste 0 952.3 0.7 72
2019-11-10 23:00:00 8.2 21 Oeste 30 Oeste 0 951.6 0.3 69
2019-11-10 22:00:00 8.7 18 Oeste 31 Oeste 0 951.5 0.4 66
2019-11-10 21:00:00 9.1 18 Oeste 39 Oeste 0 951.6 0.9 63
2019-11-10 20:00:00 9.9 23 Oeste 37 Oeste 0 951.3 0.5 57
2019-11-10 19:00:00 10.3 18 Oeste 34 Oeste 0 951.1 0.7 51
2019-11-10 18:00:00 10.4 17 Noroeste 36 Noroeste 0 950.7 0.2 55
2019-11-10 17:00:00 10.8 22 Noroeste 40 Noroeste 0 950.8 -0.2 53
2019-11-10 16:00:00 10.8 21 Noroeste 36 Noroeste 0 950.4 -0.9 55
2019-11-10 15:00:00 11 13 Noroeste 28 Noroeste 0 950.5 -1.3 57
2019-11-10 14:00:00 10.9 16 Noroeste 31 Noroeste 0 951 -0.7 59
2019-11-10 13:00:00 10.2 21 Noroeste 34 Noroeste 0 951.3 -0.6 64
2019-11-10 12:00:00 10.1 15 Noroeste 22 Oeste 0 951.8 0.1 66
2019-11-10 11:00:00 10.3 15 Oeste 28 Oeste 0 951.7 0.8 68
2019-11-10 10:00:00 10 15 Oeste 30 Oeste 0 951.9 1.6 69
2019-11-10 09:00:00 9.5 17 Oeste 31 Oeste 0 951.7 1.6 74
2019-11-10 08:00:00 9.3 19 Oeste 32 Oeste 0 950.9 0.5 77
2019-11-10 07:00:00 9.9 19 Oeste 33 Noroeste 0 950.3 -0.3 82
2019-11-10 06:00:00 10.5 18 Oeste 38 Oeste 0 950.1 -0.5 83
2019-11-10 05:00:00 10.9 15 Oeste 31 Oeste 0 950.4 -0.4 81
2019-11-10 04:00:00 11 17 Oeste 34 Oeste 0 950.6 -0.5 83
2019-11-10 03:00:00 11.5 17 Oeste 36 Oeste 0 950.6 -0.7 81
2019-11-10 02:00:00 11.3 24 Oeste 48 Oeste 0 950.8 -1.5 81
2019-11-10 01:00:00 11.3 23 Oeste 44 Oeste 0 951.1 -1.6 82
2019-11-10 00:00:00 11.9 14 Oeste 38 Oeste 0 951.3 -1.9 73
2019-11-09 23:00:00 11.2 8 Sudeste 28 Oeste 0 952.3 -1 66
2019-11-09 22:00:00 11.2 13 Oeste 37 Oeste 0 952.7 -1 65
2019-11-09 21:00:00 11.3 4 Sudeste 12 Noroeste 0 953.2 -0.1 55
2019-11-09 20:00:00 11.7 3 Sudeste 14 Sudoeste 0 953.3 -0.5 52
2019-11-09 19:00:00 11.7 4 Este 20 Sudoeste 0 953.7 0.1 50
2019-11-09 18:00:00 12.3 7 Sudoeste 20 Oeste 0 953.3 -0.6 47
2019-11-09 17:00:00 12.7 14 Oeste 26 Oeste 0 953.8 -0.4 44
2019-11-09 16:00:00 13.2 12 Noroeste 26 Noroeste 0 953.6 -1.5 39
2019-11-09 15:00:00 13.6 18 Noroeste 33 Oeste 0 953.9 -2 39
2019-11-09 14:00:00 14.8 12 Oeste 23 Oeste 0 954.2 -1.9 36
2019-11-09 13:00:00 14.3 6 Este 20 Noroeste 0 955.1 -0.8 44
2019-11-09 12:00:00 12.6 4 Nordeste 11 Norte 0 955.9 -0.1 50
2019-11-09 11:00:00 10.9 4 Norte 9 Nordeste 0 956.1 0.5 55
2019-11-09 10:00:00 10 3 Nordeste 7 Norte 0 955.9 1.1 56
2019-11-09 09:00:00 7 3 Sudoeste 6 Oeste 0 956 1.6 68
2019-11-09 08:00:00 4.6 3 Sur 6 Sur 0 955.6 1.3 76
2019-11-09 07:00:00 5.4 3 Este 9 Oeste 0 954.8 0.1 71
2019-11-09 06:00:00 7.1 2 Este 16 Sudoeste 0 954.4 -0.4 63
2019-11-09 05:00:00 7.3 8 Oeste 15 Oeste 0 954.3 -0.5 62
2019-11-09 04:00:00 7.4 9 Oeste 16 Oeste 0 954.7 -0.4 62
2019-11-09 03:00:00 7.8 12 Oeste 17 Oeste 0 954.8 -0.4 60
2019-11-09 02:00:00 8.2 10 Oeste 15 Oeste 0 954.8 -0.3 58
2019-11-09 01:00:00 8.9 9 Oeste 16 Oeste 0 955.1 0.4 55
2019-11-09 00:00:00 9.1 10 Oeste 20 Oeste 0 955.2 1 54
2019-11-08 23:00:00 8.9 14 Oeste 21 Oeste 0 955.1 1.6 55
2019-11-08 22:00:00 9 15 Oeste 23 Oeste 0 954.7 1.7 55
2019-11-08 21:00:00 9 9 Oeste 18 Oeste 0 954.2 1.7 57
2019-11-08 20:00:00 9.9 8 Oeste 19 Oeste 0 953.5 1.8 54
2019-11-08 19:00:00 10.1 11 Sudoeste 22 Oeste 0 953 1.8 54
2019-11-08 18:00:00 10.1 6 Oeste 23 Oeste 0 952.5 1.2 56
2019-11-08 17:00:00 11.2 10 Oeste 28 Oeste 0 951.7 0.4 51
2019-11-08 16:00:00 11.4 16 Noroeste 31 Noroeste 0 951.2 -0.2 51
2019-11-08 15:00:00 11.7 17 Noroeste 32 Noroeste 0 951.3 -0.5 51
2019-11-08 14:00:00 11.5 15 Noroeste 30 Noroeste 0 951.3 -0.4 53
2019-11-08 13:00:00 11.4 14 Noroeste 29 Noroeste 0 951.4 0.2 57
2019-11-08 12:00:00 10 9 Noroeste 30 Oeste 0 951.8 1.6 63
2019-11-08 11:00:00 9.1 13 Noroeste 29 Oeste 0 951.7 2.7 67
2019-11-08 10:00:00 8.5 16 Noroeste 38 Noroeste 0 951.2 2.7 74
2019-11-08 09:00:00 7.6 14 Oeste 31 Oeste 0 950.2 1.8 78
2019-11-08 08:00:00 7.3 19 Oeste 40 Oeste 0 949 1.1 80
2019-11-08 07:00:00 7.5 21 Oeste 36 Oeste 0 948.5 0.5 78
2019-11-08 06:00:00 7.9 16 Noroeste 34 Oeste 0 948.4 0.2 75
2019-11-08 05:00:00 8.2 19 Noroeste 39 Noroeste 0 947.9 -0.3 70
2019-11-08 04:00:00 8.1 17 Oeste 35 Oeste 0 948 -0.6 70
2019-11-08 03:00:00 8.7 15 Oeste 32 Oeste 0 948.2 -0.9 68
2019-11-08 02:00:00 8.9 11 Oeste 27 Oeste 0 948.2 -0.8 64
2019-11-08 01:00:00 9.7 18 Oeste 39 Oeste 0 948.6 0.1 60
2019-11-08 00:00:00 10 16 Oeste 40 Oeste 0 949.1 0.9 60
2019-11-07 23:00:00 10.4 18 Oeste 33 Noroeste 0 949 1.1 58
2019-11-07 22:00:00 10.7 19 Oeste 29 Oeste 0 948.5 1.3 54
2019-11-07 21:00:00 10.6 14 Oeste 20 Oeste 0 948.2 1.5 57
2019-11-07 20:00:00 11.1 13 Oeste 22 Oeste 0 947.9 1.2 58
2019-11-07 19:00:00 11.7 12 Oeste 19 Oeste 0 947.2 0.8 72
2019-11-07 18:00:00 12.4 8 Oeste 17 Noroeste 0 946.7 0.7 70
2019-11-07 17:00:00 13.7 10 Oeste 31 Noroeste 0 946.7 0 65
2019-11-07 16:00:00 14.4 18 Oeste 37 Noroeste 0 946.4 -0.5 66
2019-11-07 15:00:00 13.9 18 Noroeste 36 Noroeste 0 946 -1.5 82
2019-11-07 14:00:00 13.9 18 Oeste 44 Oeste 0 946.7 -0.9 82
2019-11-07 13:00:00 14.6 22 Oeste 44 Oeste 0 946.9 -0.6 79
2019-11-07 12:00:00 13.4 7 Norte 18 Noroeste 0.2 947.5 0.2 85
2019-11-07 11:00:00 11.2 3 Nordeste 9 Este 0.2 947.6 0.4 83
2019-11-07 10:00:00 10.6 0 Calma 13 Norte 0 947.5 0 80
2019-11-07 09:00:00 9.8 3 Sudeste 9 Nordeste 0 947.3 -0.2 84
2019-11-07 08:00:00 10.6 3 Noroeste 8 Sudeste 0 947.2 -0.6 78
2019-11-07 07:00:00 10.7 2 Noroeste 9 Noroeste 0 947.5 -0.5 79
2019-11-07 06:00:00 10.5 5 Sudeste 8 Sur 0 947.5 -0.9 78
2019-11-07 05:00:00 10.7 6 Sur 9 Sur 0 947.8 -0.9 75
2019-11-07 04:00:00 10.2 3 Sur 9 Sudoeste 0 948 -1.3 80
2019-11-07 03:00:00 10.6 6 Sudoeste 12 Oeste 0 948.4 -1 76
2019-11-07 02:00:00 11.4 7 Oeste 18 Oeste 0 948.7 -1 69
2019-11-07 01:00:00 11.8 6 Sudoeste 18 Oeste 0 949.3 -0.5 60
2019-11-07 00:00:00 11.3 12 Oeste 18 Oeste 0 949.4 -0.3 60
2019-11-06 23:00:00 11.4 12 Oeste 21 Oeste 0 949.7 -0.3 59
2019-11-06 22:00:00 11.7 15 Oeste 21 Oeste 0 949.8 0 58
2019-11-06 21:00:00 11.3 5 Oeste 14 Sudoeste 0 949.7 0.3 59
2019-11-06 20:00:00 11.7 7 Sudoeste 17 Sudoeste 0 950 0.6 62
2019-11-06 19:00:00 11.8 10 Sudoeste 15 Sudoeste 0 949.8 0.4 61
2019-11-06 18:00:00 11.9 5 Sudoeste 14 Oeste 0 949.4 -0.2 62
2019-11-06 17:00:00 13.4 9 Oeste 22 Oeste 0 949.4 -0.5 55
2019-11-06 16:00:00 13.3 13 Oeste 21 Noroeste 0 949.4 -1 54
2019-11-06 15:00:00 13.7 15 Oeste 32 Noroeste 0 949.6 -1.5 54
2019-11-06 14:00:00 13.9 17 Noroeste 28 Noroeste 0 949.9 -1.2 55
2019-11-06 13:00:00 13.6 18 Noroeste 31 Noroeste 0 950.4 -0.9 53
2019-11-06 12:00:00 13.3 9 Oeste 25 Sudoeste 0 951.1 0.2 54
2019-11-06 11:00:00 13.4 7 Noroeste 16 Noroeste 0 951.1 0.9 57
2019-11-06 10:00:00 12 3 Norte 7 Este 0 951.3 1.3 69
2019-11-06 09:00:00 10.1 3 Norte 8 Sur 0 950.9 1 76
2019-11-06 08:00:00 8 5 Sur 11 Noroeste 0 950.2 0.5 83
2019-11-06 07:00:00 9.1 8 Oeste 13 Oeste 0 950 -0.1 77
2019-11-06 06:00:00 9.9 5 Oeste 24 Oeste 0 949.9 -0.3 73
2019-11-06 05:00:00 10.3 14 Oeste 24 Oeste 0 949.7 -0.5 73
2019-11-06 04:00:00 10.3 13 Oeste 22 Oeste 0 950.1 -0.6 76
2019-11-06 03:00:00 10.6 12 Oeste 23 Oeste 0 950.2 -0.1 76
2019-11-06 02:00:00 11.1 14 Oeste 26 Oeste 0 950.2 0 74
2019-11-06 01:00:00 11.7 14 Oeste 27 Oeste 0 950.7 0.5 71
2019-11-06 00:00:00 12.3 17 Oeste 36 Oeste 0 950.3 0.7 68
2019-11-05 23:00:00 12.8 18 Oeste 36 Oeste 0 950.2 1 65
2019-11-05 22:00:00 12.9 19 Oeste 34 Oeste 0 950.2 1.5 63
2019-11-05 21:00:00 12.9 14 Oeste 28 Oeste 0 949.6 1.6 63
2019-11-05 20:00:00 13 16 Oeste 30 Oeste 0 949.2 1.2 65
2019-11-05 19:00:00 12.9 12 Oeste 32 Oeste 0 948.7 0.7 67
2019-11-05 18:00:00 13 13 Oeste 34 Oeste 0 948 -0.2 68
2019-11-05 17:00:00 13.2 12 Oeste 32 Oeste 0 948 -0.5 67
2019-11-05 16:00:00 13.4 13 Oeste 34 Oeste 0 948 -1 65
2019-11-05 15:00:00 13.4 15 Oeste 37 Oeste 0 948.2 -1.4 66
2019-11-05 14:00:00 14 14 Oeste 30 Noroeste 0 948.5 -1.1 61
2019-11-05 13:00:00 13 15 Noroeste 33 Oeste 0 949 -0.3 63
2019-11-05 12:00:00 12.6 12 Oeste 30 Oeste 0 949.6 1 67
2019-11-05 11:00:00 11.6 14 Noroeste 32 Noroeste 0 949.6 1.9 72
2019-11-05 10:00:00 11.1 18 Oeste 32 Sudoeste 0 949.3 2.1 75
2019-11-05 09:00:00 10.3 16 Oeste 31 Oeste 0 948.6 1.8 78
2019-11-05 08:00:00 9.9 13 Oeste 42 Noroeste 0 947.7 1.9 82
2019-11-05 07:00:00 10 17 Oeste 35 Oeste 0 947.2 1.8 82
2019-11-05 06:00:00 10.6 14 Oeste 45 Noroeste 0.4 946.8 1.6 85
2019-11-05 05:00:00 12 19 Oeste 44 Oeste 0 945.8 0.8 87
2019-11-05 04:00:00 11.8 21 Oeste 46 Oeste 0.8 945.4 0 89
2019-11-05 03:00:00 12.6 23 Oeste 45 Oeste 2.8 945.2 -0.3 91
2019-11-05 02:00:00 13.7 22 Oeste 51 Sudoeste 0.8 945 -1 89
2019-11-05 01:00:00 14.5 19 Oeste 54 Oeste 0 945.4 -0.6 81
2019-11-05 00:00:00 15.1 23 Oeste 55 Oeste 0 945.5 -1 73
2019-11-04 23:00:00 15.1 10 Oeste 46 Sudoeste 0 946 -0.8 70
2019-11-04 22:00:00 15.5 24 Sudoeste 59 Sudoeste 0 946 -0.5 66
2019-11-04 21:00:00 15.5 22 Sudoeste 43 Sudoeste 0 946.5 -0.1 69
2019-11-04 20:00:00 15.7 21 Sudoeste 44 Oeste 0 946.8 0.2 70
2019-11-04 19:00:00 16.1 16 Sudoeste 37 Oeste 0 946.5 -0.3 64
2019-11-04 18:00:00 16.1 14 Oeste 34 Oeste 0 946.6 -0.8 66
2019-11-04 17:00:00 16.6 11 Oeste 41 Oeste 0 946.6 -1.5 65
2019-11-04 16:00:00 17.4 12 Oeste 37 Sudoeste 0 946.8 -2.1 64
2019-11-04 15:00:00 17.3 15 Oeste 40 Oeste 0 947.4 -1.8 66
2019-11-04 14:00:00 17.3 15 Oeste 36 Noroeste 0 948.1 -1.6 64
2019-11-04 13:00:00 16.2 15 Noroeste 33 Oeste 0 948.9 -1.1 79
2019-11-04 12:00:00 17 12 Oeste 31 Oeste 0 949.2 -1 73
2019-11-04 11:00:00 15.8 12 Oeste 26 Oeste 0 949.7 0.2 81
2019-11-04 10:00:00 15.8 7 Oeste 24 Oeste 0 950 0.9 75
2019-11-04 09:00:00 14.8 13 Oeste 33 Oeste 0 950.2 1.1 78
2019-11-04 08:00:00 14.4 10 Oeste 32 Sudoeste 0 949.5 0.3 80
2019-11-04 07:00:00 14.7 8 Oeste 35 Oeste 0 949.1 -0.3 80
2019-11-04 06:00:00 15.4 12 Oeste 32 Oeste 0 949.1 -1.2 79
2019-11-04 05:00:00 15.8 12 Oeste 23 Oeste 0 949.2 -1 75
2019-11-04 04:00:00 15.7 10 Oeste 21 Oeste 0 949.4 -0.6 79
2019-11-04 03:00:00 15.7 11 Oeste 31 Oeste 0 950.3 -0.1 78
2019-11-04 02:00:00 15.7 13 Oeste 40 Oeste 0 950.2 -0.3 79
2019-11-04 01:00:00 15.8 12 Oeste 35 Sudoeste 0 950 -0.4 79
2019-11-04 00:00:00 16 11 Oeste 28 Oeste 0 950.4 0.8 71
2019-11-03 23:00:00 15.9 8 Oeste 23 Noroeste 0 950.5 1.6 68
2019-11-03 22:00:00 16.1 13 Oeste 31 Oeste 0 950.4 2.3 65
2019-11-03 21:00:00 16.1 10 Oeste 42 Oeste 0 949.6 2.6 62
2019-11-03 20:00:00 16.3 15 Oeste 30 Oeste 0 948.9 2.8 62
2019-11-03 19:00:00 16.7 12 Oeste 41 Noroeste 0 948.1 2.7 60
2019-11-03 18:00:00 17.6 20 Noroeste 48 Noroeste 0 947 1.7 57
2019-11-03 17:00:00 19 24 Noroeste 51 Noroeste 0 946.1 0.4 56
2019-11-03 16:00:00 18.8 23 Noroeste 43 Oeste 0 945.4 -0.8 56
2019-11-03 15:00:00 18.6 22 Oeste 52 Oeste 0 945.3 -1.1 66
2019-11-03 14:00:00 18.4 20 Oeste 48 Oeste 0 945.7 -0.1 64
2019-11-03 13:00:00 16.8 25 Oeste 49 Oeste 0 946.2 0.7 70
2019-11-03 12:00:00 16.7 22 Oeste 51 Oeste 0 946.4 1.7 71
2019-11-03 11:00:00 16.6 26 Oeste 59 Oeste 0 945.8 1.5 70
2019-11-03 10:00:00 15.7 29 Oeste 55 Oeste 0 945.5 2 73
2019-11-03 09:00:00 14.7 21 Oeste 51 Oeste 0 944.7 0.8 78
2019-11-03 08:00:00 14.8 17 Oeste 47 Oeste 0 944.3 0.5 74
2019-11-03 07:00:00 15 24 Oeste 46 Oeste 0 943.5 -0.2 69
2019-11-03 06:00:00 14.8 18 Oeste 51 Oeste 0 943.9 -0.2 78
2019-11-03 05:00:00 15.2 19 Oeste 50 Oeste 0 943.8 0 78
2019-11-03 04:00:00 15.4 19 Oeste 47 Oeste 0 943.7 -1.1 81
2019-11-03 03:00:00 15.4 19 Oeste 51 Oeste 0 944.1 -0.5 81
2019-11-03 02:00:00 15.8 21 Oeste 46 Oeste 0 943.8 -1.3 78
2019-11-03 01:00:00 15.8 22 Oeste 51 Noroeste 0.2 944.8 -0.5 85
2019-11-03 00:00:00 15.9 22 Oeste 51 Oeste 0 944.6 -0.2 85
2019-11-02 23:00:00 16.7 27 Oeste 53 Noroeste 0 945.1 -0.2 77
2019-11-02 22:00:00 17.1 31 Oeste 57 Oeste 0 945.3 -0.1 75
2019-11-02 21:00:00 17.7 21 Oeste 61 Oeste 0 944.8 -0.3 69
2019-11-02 20:00:00 18 19 Oeste 43 Sudoeste 0 945.3 -0.1 69
2019-11-02 19:00:00 18.2 18 Oeste 46 Oeste 0 945.4 -0.1 68
2019-11-02 18:00:00 18.6 18 Sudoeste 37 Oeste 0 945.1 -1.2 66
2019-11-02 17:00:00 19.3 14 Oeste 36 Oeste 0 945.4 -1.8 63
2019-11-02 16:00:00 19.7 15 Oeste 45 Oeste 0 945.5 -2.7 62
2019-11-02 15:00:00 20.7 19 Oeste 42 Oeste 0 946.3 -2.7 60
2019-11-02 14:00:00 19.6 12 Oeste 38 Oeste 0 947.2 -2.1 66
2019-11-02 13:00:00 18.4 20 Oeste 38 Oeste 1 948.2 -1 75
2019-11-02 12:00:00 19 13 Oeste 32 Oeste 0 949 -0.4 72
2019-11-02 11:00:00 18.9 17 Oeste 42 Oeste 0 949.3 0.6 72
2019-11-02 10:00:00 17.6 23 Oeste 44 Oeste 0 949.2 -0.2 79
2019-11-02 09:00:00 17.2 25 Oeste 53 Oeste 0 949.4 -0.6 82
2019-11-02 08:00:00 16.6 24 Oeste 50 Oeste 0.2 948.7 -2 85
2019-11-02 07:00:00 16.4 17 Oeste 37 Noroeste 2.4 949.4 -1.7 87
2019-11-02 06:00:00 16.6 17 Oeste 35 Noroeste 0.2 950 -1.7 86
2019-11-02 05:00:00 16.6 15 Oeste 36 Oeste 0.6 950.7 -1.5 88
2019-11-02 04:00:00 18.2 18 Oeste 39 Oeste 0 951.1 -1.8 75
2019-11-02 03:00:00 17.8 18 Oeste 41 Oeste 0 951.7 -1.8 80
2019-11-02 02:00:00 18.3 15 Oeste 44 Oeste 0 952.2 -1.7 75
2019-11-02 01:00:00 18.6 18 Oeste 36 Oeste 0 952.9 -1.2 75
2019-11-02 00:00:00 19 12 Oeste 30 Oeste 0 953.5 -0.8 73
2019-11-01 23:00:00 19.4 11 Oeste 30 Oeste 0 953.9 -0.2 73
2019-11-01 22:00:00 19.7 14 Oeste 37 Oeste 0 954.1 0.3 72
2019-11-01 21:00:00 19.2 21 Oeste 35 Oeste 0 954.3 0.5 82
2019-11-01 20:00:00 20.4 18 Oeste 47 Oeste 0 954.1 0.3 72
2019-11-01 19:00:00 20.4 24 Oeste 46 Oeste 0 953.8 -0.3 72
2019-11-01 18:00:00 20.5 17 Oeste 41 Oeste 0 953.8 -1 70
2019-11-01 17:00:00 22 12 Oeste 36 Oeste 0 953.8 -1.9 62
2019-11-01 16:00:00 22.5 13 Oeste 30 Oeste 0 954.1 -2.5 60
2019-11-01 15:00:00 22 8 Oeste 23 Sudoeste 0 954.8 -2.3 61
2019-11-01 14:00:00 21.1 11 Oeste 26 Noroeste 0 955.7 -1.7 66
2019-11-01 13:00:00 20.2 11 Oeste 22 Oeste 0 956.6 -0.6 69
2019-11-01 12:00:00 20.1 14 Oeste 28 Noroeste 0 957.1 0 71
2019-11-01 11:00:00 19.4 17 Oeste 30 Noroeste 0 957.4 0.8 73
2019-11-01 10:00:00 19.2 13 Oeste 28 Oeste 0 957.2 0.5 73
2019-11-01 09:00:00 18 18 Oeste 29 Oeste 0 957.1 0.4 80
2019-11-01 08:00:00 17.6 18 Oeste 31 Oeste 0 956.6 0.1 83
2019-11-01 07:00:00 17.8 17 Oeste 27 Oeste 0 956.7 0 83
2019-11-01 06:00:00 18.2 13 Oeste 28 Oeste 0 956.7 -0.3 83
2019-11-01 05:00:00 18.1 17 Oeste 27 Oeste 0 956.5 -0.7 84
2019-11-01 04:00:00 17.7 13 Oeste 30 Oeste 0 956.7 -0.7 89
2019-11-01 03:00:00 18.6 14 Oeste 28 Noroeste 0 957 -0.6 83
2019-11-01 02:00:00 18.8 15 Oeste 26 Oeste 0 957.2 -0.7 80
2019-11-01 01:00:00 19.1 13 Oeste 33 Oeste 0 957.4 -0.5 75
2019-11-01 00:00:00 19.6 12 Noroeste 23 Oeste 0 957.6 0 69
2019-10-31 23:00:00 20.1 12 Oeste 24 Oeste 0 957.9 0.4 66
2019-10-31 22:00:00 19.9 14 Oeste 26 Oeste 0 957.9 0.8 64
2019-10-31 21:00:00 20 13 Oeste 31 Oeste 0 957.6 0.7 63
2019-10-31 20:00:00 20.2 15 Oeste 31 Oeste 0 957.5 0.8 65
2019-10-31 19:00:00 20.3 14 Oeste 26 Oeste 0 957.1 0.3 64
2019-10-31 18:00:00 20.6 11 Sudoeste 27 Sudoeste 0 956.9 -0.2 62
2019-10-31 17:00:00 21.5 9 Oeste 21 Noroeste 0 956.7 -0.9 60
2019-10-31 16:00:00 22.3 10 Noroeste 25 Noroeste 0 956.8 -1.3 57
2019-10-31 15:00:00 22.1 11 Noroeste 23 Noroeste 0 957.1 -1.4 57
2019-10-31 14:00:00 21.7 14 Noroeste 33 Noroeste 0 957.6 -1.2 58
2019-10-31 13:00:00 21.6 14 Noroeste 23 Noroeste 0 958.1 -0.4 59
2019-10-31 12:00:00 20.8 9 Noroeste 19 Noroeste 0 958.5 0.5 61
2019-10-31 11:00:00 19.3 13 Noroeste 21 Noroeste 0 958.8 1.4 70
2019-10-31 10:00:00 18.4 6 Sudeste 15 Noroeste 0 958.5 1.3 73
2019-10-31 09:00:00 17.8 4 Oeste 15 Noroeste 0 958 1 77
2019-10-31 08:00:00 16.9 0 Calma 5 Sudoeste 0 957.4 0.5 77
2019-10-31 07:00:00 17.1 4 Noroeste 8 Norte 0 957.2 0.5 76
2019-10-31 06:00:00 17.6 4 Sudeste 12 Oeste 0 957 -0.2 74
2019-10-31 05:00:00 17.6 7 Oeste 14 Oeste 0 956.9 -0.2 74
2019-10-31 04:00:00 17.8 5 Oeste 16 Sudoeste 0 956.7 -0.5 71
2019-10-31 03:00:00 17.6 3 Sudoeste 11 Sudoeste 0 957.2 -0.2 68
2019-10-31 02:00:00 17.9 4 Sudoeste 9 Sudoeste 0 957.1 -0.4 67
2019-10-31 01:00:00 18.9 6 Oeste 22 Oeste 0 957.2 -0.2 64
2019-10-31 00:00:00 19.4 14 Oeste 24 Oeste 0 957.4 0.5 61
2019-10-30 23:00:00 19.5 13 Oeste 25 Oeste 0 957.5 0.9 59
2019-10-30 22:00:00 19.1 8 Oeste 17 Oeste 0 957.4 1.3 57
2019-10-30 21:00:00 19.6 11 Oeste 18 Oeste 0 956.9 1 56
2019-10-30 20:00:00 19.3 9 Oeste 15 Oeste 0 956.6 1.2 55
2019-10-30 19:00:00 19.7 9 Oeste 12 Sudoeste 0 956.1 0.8 52
2019-10-30 18:00:00 20.1 9 Oeste 12 Oeste 0 955.9 0.5 50
2019-10-30 17:00:00 21.9 8 Norte 13 Norte 0 955.4 -0.4 43
2019-10-30 16:00:00 22.1 4 Noroeste 15 Noroeste 0 955.3 -1 44
2019-10-30 15:00:00 22.4 8 Noroeste 17 Noroeste 0 955.4 -1.4 46
2019-10-30 14:00:00 21.9 9 Noroeste 15 Noroeste 0 955.8 -1 49
2019-10-30 13:00:00 21.3 7 Noroeste 16 Norte 0 956.3 -0.4 53
2019-10-30 12:00:00 20.6 2 Nordeste 10 Norte 0 956.8 0.9 61
2019-10-30 11:00:00 19.8 3 Nordeste 7 Nordeste 0 956.8 1.5 65
2019-10-30 10:00:00 17.6 3 Norte 5 Nordeste 0 956.7 2 72
2019-10-30 09:00:00 15.9 2 Sudeste 4 Sur 0 955.9 1.2 79
2019-10-30 08:00:00 13.4 3 Sur 8 Oeste 0 955.3 1.1 86
2019-10-30 07:00:00 13.6 2 Sur 8 Sur 0 954.7 0.6 84
2019-10-30 06:00:00 14 2 Sur 7 Sudoeste 0 954.7 0.2 84
2019-10-30 05:00:00 14.5 5 Sudoeste 7 Sudoeste 0 954.2 -0.6 83
2019-10-30 04:00:00 15.2 5 Sudoeste 6 Sudoeste 0 954.1 -0.6 80
2019-10-30 03:00:00 16.1 6 Sudoeste 12 Oeste 0 954.5 0 78
2019-10-30 02:00:00 16.9 9 Oeste 15 Oeste 0 954.8 0.4 75
2019-10-30 01:00:00 16.2 8 Oeste 10 Oeste 0 954.7 0.7 75
2019-10-30 00:00:00 17.6 8 Oeste 11 Oeste 0 954.5 0.7 68
2019-10-29 23:00:00 16.8 8 Oeste 10 Oeste 0 954.4 1.1 71
2019-10-29 22:00:00 16.4 3 Sudoeste 10 Oeste 0 954 1.2 70
2019-10-29 21:00:00 17 9 Sudoeste 11 Sudoeste 0 953.8 1.3 68
2019-10-29 20:00:00 17.3 7 Sudoeste 10 Sudoeste 0 953.3 1.2 66
2019-10-29 19:00:00 16.9 8 Sudoeste 10 Sudoeste 0 952.8 0.9 67
2019-10-29 18:00:00 18.4 5 Sudoeste 9 Sudoeste 0 952.5 0.5 61
2019-10-29 17:00:00 20.7 3 Sudoeste 14 Norte 0 952.1 -0.1 53
2019-10-29 16:00:00 21 4 Norte 18 Norte 0 951.9 -0.9 49
2019-10-29 15:00:00 21.5 9 Noroeste 15 Norte 0 952 -1.3 48
2019-10-29 14:00:00 21.5 5 Nordeste 13 Sudeste 0 952.2 -1.3 51
2019-10-29 13:00:00 20.6 4 Nordeste 11 Nordeste 0 952.8 -0.4 54
2019-10-29 12:00:00 18.6 2 Nordeste 9 Este 0 953.3 0.8 67
2019-10-29 11:00:00 17.8 3 Nordeste 11 Noroeste 0 953.5 1.7 72
2019-10-29 10:00:00 16 7 Noroeste 13 Norte 0 953.2 1.8 78
2019-10-29 09:00:00 15.1 5 Sur 13 Sur 0 952.5 1.2 80
2019-10-29 08:00:00 13.5 2 Sur 8 Sudoeste 0 951.8 0.5 87
2019-10-29 07:00:00 12.8 3 Sur 7 Sur 0 951.4 0.2 88
2019-10-29 06:00:00 12.8 3 Sur 8 Sudoeste 0 951.3 -0.3 88
2019-10-29 05:00:00 13.3 6 Sudoeste 10 Sur 0 951.3 -0.1 84
2019-10-29 04:00:00 13.3 7 Sur 10 Sur 0 951.2 -0.6 85
2019-10-29 03:00:00 13.7 3 Oeste 9 Oeste 0 951.6 -0.3 81
2019-10-29 02:00:00 13.5 4 Oeste 10 Oeste 0 951.4 -0.4 78
2019-10-29 01:00:00 14.2 5 Sudoeste 9 Sudoeste 0 951.8 0 73
2019-10-29 00:00:00 14.6 5 Sudoeste 9 Oeste 0 951.9 0.4 70
2019-10-28 23:00:00 15 0 Calma 9 Sudoeste 0 951.8 0.3 68
2019-10-28 22:00:00 15.7 7 Sudoeste 13 Sudeste 0 951.8 0.4 63
2019-10-28 21:00:00 16.5 8 Sur 11 Oeste 0 951.5 0.5 59
2019-10-28 20:00:00 17.5 6 Sudoeste 19 Oeste 0 951.5 0.7 54
2019-10-28 19:00:00 18.1 11 Oeste 16 Oeste 0 951.4 0.3 51
2019-10-28 18:00:00 20.1 10 Oeste 19 Oeste 0 951 -0.3 45
2019-10-28 17:00:00 21.2 8 Oeste 17 Noroeste 0 950.8 -1 43
2019-10-28 16:00:00 21.7 13 Noroeste 23 Norte 0 951.1 -1.3 40
2019-10-28 15:00:00 22.2 13 Noroeste 21 Noroeste 0 951.3 -1.9 40
2019-10-28 14:00:00 22.4 5 Noroeste 13 Noroeste 0 951.8 -1.6 50
2019-10-28 13:00:00 21.1 3 Nordeste 10 Norte 0 952.4 -0.9 54
2019-10-28 12:00:00 19.9 3 Nordeste 10 Norte 0 953.2 0.5 56
2019-10-28 11:00:00 18.5 7 Norte 17 Noroeste 0 953.4 1.2 62
2019-10-28 10:00:00 16.1 3 Norte 10 Oeste 0 953.3 1 57
2019-10-28 09:00:00 15.2 5 Sudeste 17 Oeste 0 952.7 0.9 60
2019-10-28 08:00:00 15.1 4 Noroeste 10 Sur 0 952.2 0.5 60
2019-10-28 07:00:00 15.5 7 Oeste 21 Oeste 0 952.3 0.2 56
2019-10-28 06:00:00 15.2 2 Sudeste 6 Sudoeste 0 951.8 -0.7 57
2019-10-28 05:00:00 15.9 3 Noroeste 9 Sudeste 0 951.7 -1.2 55
2019-10-28 04:00:00 15.1 3 Oeste 8 Sudoeste 0 952.1 -1.1 57
2019-10-28 03:00:00 14.6 5 Oeste 7 Oeste 0 952.5 -0.7 59
2019-10-28 02:00:00 16 2 Sur 12 Sudoeste 0 952.9 -0.5 54
2019-10-28 01:00:00 15.2 5 Sudoeste 10 Sudoeste 0 953.2 -0.1 58
2019-10-28 00:00:00 15.8 4 Sur 7 Oeste 0 953.2 0.2 56
2019-10-27 23:00:00 16.6 5 Sudoeste 9 Sudoeste 0 953.4 0.7 54
2019-10-27 22:00:00 17.6 8 Sudoeste 10 Sudoeste 0 953.3 1 49
2019-10-27 21:00:00 17.9 7 Sudoeste 13 Sudoeste 0 953 1 48
2019-10-27 20:00:00 18.1 7 Sudoeste 10 Sudoeste 0 952.7 0.7 48
2019-10-27 19:00:00 20 8 Sur 13 Oeste 0 952.3 0.2 44
2019-10-27 18:00:00 21.7 7 Oeste 12 Oeste 0 952 -0.5 41
2019-10-27 17:00:00 22.9 7 Oeste 17 Norte 0 952 -0.8 37
2019-10-27 16:00:00 23.6 10 Noroeste 17 Noroeste 0 952.1 -1.4 33
2019-10-27 15:00:00 23.8 8 Noroeste 14 Noroeste 0 952.5 -1.7 34
2019-10-27 14:00:00 24.3 4 Este 11 Nordeste 0 952.8 -1.4 34
2019-10-27 13:00:00 23.6 7 Norte 16 Norte 0 953.5 -0.6 34
2019-10-27 12:00:00 21.6 5 Norte 9 Nordeste 0 954.2 0.6 43
2019-10-27 11:00:00 20.1 4 Nordeste 5 Nordeste 0 954.2 1.1 46
2019-10-27 10:00:00 17.4 3 Noroeste 5 Norte 0 954.1 1.5 51
2019-10-27 09:00:00 16.6 3 Este 7 Sudeste 0 953.6 0.8 47
2019-10-27 08:00:00 14.4 3 Sur 7 Oeste 0 953.1 0.5 49
2019-10-27 07:00:00 15.6 2 Nordeste 5 Este 0 952.6 -0.1 43
2019-10-27 06:00:00 14.3 0 Calma 6 Sudoeste 0 952.8 -0.4 49
2019-10-27 05:00:00 14.8 3 Sur 6 Sudoeste 0 952.6 -0.6 48
2019-10-27 04:00:00 14.7 4 Sudoeste 8 Oeste 0 952.7 -0.6 48
2019-10-27 03:00:00 15.2 2 Sudoeste 10 Sudoeste 0 953.2 -0.5 47
2019-10-27 02:00:00 16.4 7 Sudoeste 11 Sur 0 953.2 -0.6 44
2019-10-27 01:00:00 17.6 7 Sudoeste 11 Sudoeste 0 953.7 0.1 40
2019-10-27 00:00:00 18.5 10 Sudoeste 13 Sur 0 953.8 0.5 38
2019-10-26 23:00:00 18.9 11 Sur 15 Sur 0 953.7 0.6 38
2019-10-26 22:00:00 16.6 4 Sudoeste 8 Sudoeste 0 953.6 1.1 45
2019-10-26 21:00:00 17.8 4 Sudoeste 10 Sudoeste 0 953.3 1 41
2019-10-26 20:00:00 18.8 9 Sudoeste 10 Sudoeste 0 953.1 0.6 38
2019-10-26 19:00:00 19.9 4 Sudoeste 7 Sudoeste 0 952.5 -0.2 45
2019-10-26 18:00:00 22.6 3 Sur 6 Sudeste 0 952.3 -0.9 39
2019-10-26 17:00:00 24.5 3 Este 8 Nordeste 0 952.5 -1.3 30
2019-10-26 16:00:00 25.3 4 Norte 13 Noroeste 0 952.7 -1.8 28
2019-10-26 15:00:00 24.6 5 Norte 11 Norte 0 953.2 -1.4 28
2019-10-26 14:00:00 23.1 4 Norte 7 Norte 0 953.8 -0.6 38
2019-10-26 13:00:00 21.2 3 Norte 8 Nordeste 0 954.5 0.5 44
2019-10-26 12:00:00 19.4 4 Norte 6 Norte 0 954.6 1.3 51
2019-10-26 11:00:00 18.7 3 Este 5 Este 0 954.4 1.3 51
2019-10-26 10:00:00 17.3 0 Calma 6 Sudoeste 0 954 1.1 48
2019-10-26 09:00:00 14.2 2 Nordeste 17 Sur 0 953.3 0.3 51
2019-10-26 08:00:00 13.6 4 Sudeste 6 Sudoeste 0 953.1 0 53
2019-10-26 07:00:00 14.1 4 Sudeste 9 Sur 0 952.9 -0.8 53
2019-10-26 06:00:00 13.4 4 Sudeste 7 Sudoeste 0 953 -1.1 61
2019-10-26 05:00:00 14 4 Sudoeste 8 Sur 0 953.1 -1.4 62
2019-10-26 04:00:00 14.2 5 Sur 8 Sur 0 953.7 -0.7 61
2019-10-26 03:00:00 14.7 3 Sur 8 Sudoeste 0 954.1 -0.2 60
2019-10-26 02:00:00 15 3 Sudoeste 5 Sur 0 954.5 0.1 60
2019-10-26 01:00:00 15.7 2 Sudoeste 8 Sudoeste 0 954.4 0.2 60
2019-10-26 00:00:00 17 8 Sudoeste 11 Sur 0 954.3 0.2 56
2019-10-25 23:00:00 17.9 4 Sudoeste 12 Sur 0 954.4 0.2 51
2019-10-25 22:00:00 19.2 10 Sur 15 Sur 0 954.2 0.2 45
2019-10-25 21:00:00 18.5 12 Sur 14 Sur 0 954.1 0.2 45
2019-10-25 20:00:00 17.2 6 Sudoeste 7 Sudoeste 0 954.2 0.2 51
2019-10-25 19:00:00 19.2 3 Sudoeste 7 Sudoeste 0 954 -0.4 50
2019-10-25 18:00:00 21.6 3 Sudoeste 6 Sudoeste 0 953.9 -1.1 44
2019-10-25 17:00:00 23.1 3 Oeste 7 Norte 0 954 -1.5 37
2019-10-25 16:00:00 23.3 2 Norte 8 Nordeste 0 954.4 -1.7 40
2019-10-25 15:00:00 21.9 4 Nordeste 11 Noroeste 0 955 -1.2 43
2019-10-25 14:00:00 20.6 4 Norte 8 Norte 0 955.5 -0.7 45
2019-10-25 13:00:00 18.4 4 Norte 7 Nordeste 0 956.1 0.1 53
2019-10-25 12:00:00 16.7 3 Este 6 Nordeste 0 956.2 0.7 59
2019-10-25 11:00:00 14.3 3 Nordeste 5 Nordeste 0 956.2 0.6 68
2019-10-25 10:00:00 10.6 4 Noroeste 5 Noroeste 0 956 0.5 77
2019-10-25 09:00:00 9.4 4 Sudeste 6 Sudeste 0 955.5 0 82
2019-10-25 08:00:00 9.9 0 Calma 8 Sur 0 955.6 0.1 77
2019-10-25 07:00:00 10.2 4 Sudeste 9 Este 0 955.5 -0.5 74
2019-10-25 06:00:00 10.6 4 Noroeste 6 Sur 0 955.5 -0.7 72
2019-10-25 05:00:00 12.6 0 Calma 13 Sur 0 955.5 -1 64
2019-10-25 04:00:00 11.6 3 Sudeste 7 Sur 0 956 -0.7 69
2019-10-25 03:00:00 12.4 3 Sudeste 11 Sur 0 956.2 -0.6 67
2019-10-25 02:00:00 13.4 6 Sur 16 Sur 0 956.5 -0.2 62
2019-10-25 01:00:00 13.4 11 Sur 14 Sur 0 956.7 0.4 62
2019-10-25 00:00:00 13.5 10 Sur 16 Sur 0 956.8 0.8 61
2019-10-24 23:00:00 13.9 9 Sur 19 Sur 0 956.7 1.5 60
2019-10-24 22:00:00 13.2 10 Sur 17 Sur 0 956.3 1.6 61
2019-10-24 21:00:00 12.8 5 Sudeste 13 Sur 0 956 1.4 62
2019-10-24 20:00:00 12.9 5 Sur 13 Sur 0 955.2 1 64
2019-10-24 19:00:00 13.5 6 Sur 9 Sur 0 954.7 0.6 65
2019-10-24 18:00:00 15.3 3 Este 15 Noroeste 0 954.6 0.4 57
2019-10-24 17:00:00 15.7 9 Noroeste 19 Oeste 0 954.2 0.2 54
2019-10-24 16:00:00 15.8 12 Noroeste 23 Oeste 0 954.1 0.1 53
2019-10-24 15:00:00 16 12 Oeste 28 Noroeste 0 954.2 0.3 55
2019-10-24 14:00:00 15.1 14 Noroeste 30 Noroeste 0 954 0.6 55
2019-10-24 13:00:00 14.3 13 Noroeste 25 Noroeste 0 954 1.4 63
2019-10-24 12:00:00 13.3 13 Noroeste 26 Noroeste 0 953.9 2.6 68
2019-10-24 11:00:00 12.2 10 Noroeste 28 Noroeste 0 953.4 2.7 78
2019-10-24 10:00:00 11.2 9 Oeste 26 Oeste 0 952.6 2.3 80
2019-10-24 09:00:00 11 13 Oeste 21 Oeste 0 951.3 1.9 80
2019-10-24 08:00:00 10.7 11 Oeste 25 Oeste 0 950.7 1.7 84
2019-10-24 07:00:00 10.1 10 Noroeste 28 Oeste 0 950.3 1.6 91
2019-10-24 06:00:00 10.6 13 Oeste 35 Oeste 0 949.4 1 80
2019-10-24 05:00:00 10.7 15 Oeste 35 Oeste 0 949 0.8 82
2019-10-24 04:00:00 10.6 14 Oeste 32 Oeste 0 948.7 0.8 86
2019-10-24 03:00:00 10.7 13 Oeste 29 Oeste 0 948.4 0.9 84
2019-10-24 02:00:00 10.7 15 Oeste 31 Noroeste 0 948.2 1.3 87
2019-10-24 01:00:00 10.6 18 Oeste 33 Oeste 0.2 947.9 1.7 89
2019-10-24 00:00:00 10.6 14 Oeste 26 Oeste 0.2 947.5 1.8 87
2019-10-23 23:00:00 10.8 13 Oeste 31 Oeste 0 946.9 2.4 83
2019-10-23 22:00:00 10.5 17 Oeste 36 Oeste 0.2 946.2 2 87
2019-10-23 21:00:00 10.4 18 Oeste 41 Oeste 0 945.7 1.8 88
2019-10-23 20:00:00 10.4 22 Oeste 41 Oeste 0.2 944.5 1.1 86
2019-10-23 19:00:00 10.1 17 Oeste 35 Noroeste 2 944.2 1.3 89
2019-10-23 18:00:00 12 13 Oeste 37 Oeste 0 943.9 0.9 74
2019-10-23 17:00:00 13 13 Oeste 44 Oeste 0.2 943.4 -0.5 62
2019-10-23 16:00:00 14.1 13 Oeste 41 Oeste 0 942.9 -1.3 55
2019-10-23 15:00:00 14.2 11 Sudoeste 33 Sudoeste 0 943 -1.2 50
2019-10-23 14:00:00 12.5 15 Oeste 31 Oeste 0 943.9 -0.1 61
2019-10-23 13:00:00 12.3 14 Oeste 38 Oeste 0 944.2 0.8 59
2019-10-23 12:00:00 11.9 17 Oeste 42 Oeste 0 944.2 1.4 61
2019-10-23 11:00:00 11.4 15 Oeste 30 Oeste 0 944 1.4 70
2019-10-23 10:00:00 10.8 12 Oeste 29 Oeste 0 943.4 1 69
2019-10-23 09:00:00 10.2 8 Sudoeste 20 Oeste 0 942.8 0.6 70
2019-10-23 08:00:00 10.5 9 Sudoeste 27 Sudoeste 0 942.6 0.4 67
2019-10-23 07:00:00 11.1 18 Sudoeste 34 Sudoeste 0 942.4 0.1 64
2019-10-23 06:00:00 11.3 16 Sudoeste 35 Sudoeste 0 942.2 -0.3 63
2019-10-23 05:00:00 10.9 11 Oeste 24 Oeste 0 942.2 -0.3 67
2019-10-23 04:00:00 10.7 8 Oeste 22 Sur 0 942.3 -0.6 70
2019-10-23 03:00:00 11.2 8 Oeste 25 Sudoeste 0 942.5 -0.6 64
2019-10-23 02:00:00 11.4 11 Sudoeste 27 Oeste 0 942.5 -0.6 64
2019-10-23 01:00:00 11.8 18 Oeste 33 Oeste 0 942.9 0 60
2019-10-23 00:00:00 12 10 Oeste 28 Oeste 0 943.1 0.4 61
2019-10-22 23:00:00 11.8 14 Oeste 41 Oeste 0 943.1 1 64
2019-10-22 22:00:00 12.3 21 Oeste 34 Oeste 0 942.9 0.8 60
2019-10-22 21:00:00 12.9 8 Noroeste 19 Noroeste 0 942.7 1 59
2019-10-22 20:00:00 12.8 9 Oeste 14 Sur 0 942.1 0.2 62
2019-10-22 19:00:00 14.7 4 Este 12 Nordeste 0 942.1 -0.2 53
2019-10-22 18:00:00 15.6 3 Norte 15 Norte 0 941.7 -1.2 52
2019-10-22 17:00:00 15.9 12 Norte 18 Norte 0 941.9 -1.6 51
2019-10-22 16:00:00 16.3 9 Norte 23 Norte 0 942.3 -1.9 51
2019-10-22 15:00:00 15.7 11 Norte 22 Noroeste 0 942.9 -1.9 54
2019-10-22 14:00:00 15.4 8 Norte 22 Norte 0 943.5 -1.3 55
2019-10-22 13:00:00 15.5 8 Norte 15 Norte 0 944.2 -1.1 55
2019-10-22 12:00:00 13.7 6 Norte 11 Noroeste 0 944.8 0.3 60
2019-10-22 11:00:00 12.7 3 Nordeste 8 Oeste 0 944.8 0.2 66
2019-10-22 10:00:00 11.7 4 Oeste 11 Oeste 0 945.3 0.2 68
2019-10-22 09:00:00 11.1 7 Oeste 13 Oeste 0 944.5 -1.1 70
2019-10-22 08:00:00 10.8 4 Oeste 8 Sudoeste 0 944.6 -1.3 72
2019-10-22 07:00:00 10.4 4 Sudoeste 5 Sur 0 945.1 -1.3 72
2019-10-22 06:00:00 10.8 0 Calma 12 Oeste 0 945.6 -1.2 70
2019-10-22 05:00:00 11.5 7 Oeste 14 Oeste 0 945.9 -2 68
2019-10-22 04:00:00 12.4 4 Noroeste 13 Sur 0 946.4 -1.8 63
2019-10-22 03:00:00 12.9 10 Sur 19 Sur 0 946.8 -1.7 57
2019-10-22 02:00:00 12 9 Sur 12 Sur 0 947.9 -1.1 61
2019-10-22 01:00:00 11.7 5 Sur 8 Oeste 0 948.2 -0.5 63
2019-10-22 00:00:00 11.7 5 Sudoeste 7 Sudoeste 0 948.5 -0.3 67
2019-10-21 23:00:00 11.8 3 Sudoeste 7 Sudoeste 0 949 0.3 68
2019-10-21 22:00:00 12.1 4 Sudoeste 9 Sudoeste 0 948.7 0.3 67
2019-10-21 21:00:00 11.8 6 Sudoeste 8 Sudoeste 0 948.8 0.4 67
2019-10-21 20:00:00 12.5 3 Sudoeste 10 Sudoeste 0 948.7 0.2 65
2019-10-21 19:00:00 14.6 6 Sudoeste 9 Oeste 0 948.4 -0.3 61
2019-10-21 18:00:00 16 4 Noroeste 9 Norte 0 948.4 -0.9 52
2019-10-21 17:00:00 16.4 4 Oeste 8 Sudoeste 0 948.5 -1.4 50
2019-10-21 16:00:00 15.7 5 Sudoeste 9 Noroeste 0 948.7 -1.7 54
2019-10-21 15:00:00 15.8 5 Oeste 17 Noroeste 0 949.3 -1.2 57
2019-10-21 14:00:00 16.1 5 Sur 15 Nordeste 0 949.9 -0.6 57
2019-10-21 13:00:00 15.3 5 Norte 11 Norte 0 950.4 0.2 61
2019-10-21 12:00:00 14.1 5 Norte 13 Nordeste 0 950.5 0.8 65
2019-10-21 11:00:00 13.4 4 Nordeste 10 Sudeste 0 950.5 1.2 66
2019-10-21 10:00:00 11.6 3 Norte 7 Norte 0 950.2 1.1 72
2019-10-21 09:00:00 8.9 0 Calma 9 Sur 0 949.7 0.7 83
2019-10-21 08:00:00 8.3 3 Sudoeste 8 Sur 0 949.3 0.1 85
2019-10-21 07:00:00 8.5 5 Sudoeste 8 Oeste 0 949.1 -0.1 84
2019-10-21 06:00:00 8.7 2 Sudeste 7 Sudoeste 0 949 -0.2 83
2019-10-21 05:00:00 9.6 3 Sur 9 Sur 0 949.2 0.1 78
2019-10-21 04:00:00 10 6 Sur 11 Sur 0 949.2 0.1 76
2019-10-21 03:00:00 10.4 7 Sur 10 Sur 0 949.2 0 74
2019-10-21 02:00:00 12.3 4 Sudoeste 21 Sudoeste 0 949.1 -0.1 66
2019-10-21 01:00:00 12.3 8 Oeste 20 Sudoeste 0 949.1 0.4 64
2019-10-21 00:00:00 11.9 6 Sudoeste 13 Sudoeste 0 949.2 0.8 66
2019-10-20 23:00:00 12.2 7 Oeste 17 Oeste 0 949.2 1.2 66
2019-10-20 22:00:00 12.1 8 Oeste 16 Oeste 0 948.7 1.3 64
2019-10-20 21:00:00 11.7 8 Sudoeste 13 Sudoeste 0 948.4 1.5 66
2019-10-20 20:00:00 12 2 Sur 9 Noroeste 0 948 1.3 64
2019-10-20 19:00:00 13.9 4 Sudoeste 26 Oeste 0 947.4 1.1 58
2019-10-20 18:00:00 15 12 Oeste 31 Oeste 0 946.9 1 51
2019-10-20 17:00:00 15.4 13 Oeste 31 Noroeste 0 946.7 0.8 54
2019-10-20 16:00:00 15.8 14 Oeste 34 Oeste 0 946.3 0.4 56
2019-10-20 15:00:00 15.5 12 Oeste 31 Oeste 0 945.9 0.1 57
2019-10-20 14:00:00 15.4 13 Oeste 29 Oeste 0 945.9 0.5 58
2019-10-20 13:00:00 15.1 15 Oeste 31 Noroeste 0 945.9 1 57
2019-10-20 12:00:00 13.9 10 Oeste 30 Noroeste 0 945.8 1.8 65
2019-10-20 11:00:00 12.8 11 Oeste 24 Oeste 0 945.4 1.7 68
2019-10-20 10:00:00 12.5 11 Oeste 25 Oeste 0 944.9 1.1 73
2019-10-20 09:00:00 12.2 11 Oeste 25 Oeste 0 944 0.9 74
2019-10-20 08:00:00 12.8 6 Sudoeste 20 Sur 0 943.7 0.6 69
2019-10-20 07:00:00 13 10 Sur 34 Sur 0 943.8 1.4 64
2019-10-20 06:00:00 13.1 16 Sudoeste 38 Sudoeste 0 943.1 0.4 71
2019-10-20 05:00:00 13.3 14 Oeste 32 Oeste 0.2 943.1 1.2 70
2019-10-20 04:00:00 13.1 10 Oeste 51 Oeste 0 942.4 0.4 77
2019-10-20 03:00:00 13.8 23 Oeste 42 Oeste 1.8 942.7 0.7 88
2019-10-20 02:00:00 14.5 17 Oeste 40 Oeste 5.2 941.9 0.1 91
2019-10-20 01:00:00 16.2 8 Sudoeste 33 Noroeste 2 942 0.3 88
2019-10-20 00:00:00 17.9 9 Sudoeste 44 Oeste 0.6 942 0.3 69
2019-10-19 23:00:00 19.9 14 Sudoeste 35 Oeste 0 941.8 -0.3 57
2019-10-19 22:00:00 20.1 10 Sudeste 37 Sudeste 0 941.7 -0.7 57
2019-10-19 21:00:00 20 18 Sur 35 Sur 0 941.7 -1.1 56
2019-10-19 20:00:00 20 13 Sudoeste 32 Sur 0 942.1 -1.4 54
2019-10-19 19:00:00 20.7 10 Oeste 27 Oeste 0 942.4 -1.6 51
2019-10-19 18:00:00 21.8 12 Oeste 32 Oeste 0 942.8 -1.9 47
2019-10-19 17:00:00 22.4 12 Sudoeste 28 Sudoeste 0 943.5 -2 44
2019-10-19 16:00:00 22.5 16 Oeste 32 Noroeste 0 944 -2.2 49
2019-10-19 15:00:00 22.4 15 Oeste 36 Oeste 0 944.7 -1.9 46
2019-10-19 14:00:00 20.5 15 Oeste 31 Oeste 0 945.5 -1.3 57
2019-10-19 13:00:00 19.1 5 Norte 18 Norte 0 946.2 -1 72
2019-10-19 12:00:00 19.2 4 Norte 15 Noroeste 0 946.6 -0.2 69
2019-10-19 11:00:00 17.1 4 Nordeste 11 Noroeste 0 946.8 -0.3 79
2019-10-19 10:00:00 16.2 7 Noroeste 12 Noroeste 0 947.2 -0.1 87
2019-10-19 09:00:00 14.4 6 Sudeste 11 Sur 0 946.8 -0.3 94
2019-10-19 08:00:00 14 5 Sur 10 Sur 0 947.1 -0.3 97
2019-10-19 07:00:00 13.5 0 Calma 4 Sudoeste 0 947.3 -0.7 94
2019-10-19 06:00:00 13.9 2 Sur 7 Oeste 0 947.1 -1.4 93
2019-10-19 05:00:00 14.5 2 Sur 5 Sur 0 947.4 -1.5 89
2019-10-19 04:00:00 15.5 5 Sudoeste 9 Sudoeste 0 948 -1.5 87
2019-10-19 03:00:00 16.1 2 Sudoeste 8 Sudoeste 0 948.5 -1.3 82
2019-10-19 02:00:00 17.1 4 Sudoeste 19 Noroeste 0 948.9 -1.1 78
2019-10-19 01:00:00 17.5 6 Noroeste 18 Oeste 0 949.5 -0.1 78
2019-10-19 00:00:00 17.8 6 Oeste 13 Sudoeste 0 949.8 0.2 77
2019-10-18 23:00:00 17.5 4 Sur 9 Sudoeste 0 950 0.6 76
2019-10-18 22:00:00 18.3 6 Oeste 23 Oeste 0 949.6 0.1 73
2019-10-18 21:00:00 18.9 13 Oeste 19 Oeste 0 949.6 -0.2 70
2019-10-18 20:00:00 19.6 8 Oeste 18 Oeste 0 949.4 -0.6 66
2019-10-18 19:00:00 21.4 12 Oeste 24 Noroeste 0 949.5 -0.8 60
2019-10-18 18:00:00 22.5 15 Noroeste 30 Noroeste 0 949.8 -1.2 55
2019-10-18 17:00:00 23.3 13 Noroeste 30 Noroeste 0 950 -2.1 52
2019-10-18 16:00:00 23.4 19 Noroeste 31 Noroeste 0 950.3 -2.5 50
2019-10-18 15:00:00 23.2 18 Noroeste 30 Noroeste 0 951 -2.4 48
2019-10-18 14:00:00 22.4 8 Norte 14 Norte 0 952.1 -1.1 49
2019-10-18 13:00:00 20.5 4 Nordeste 9 Este 0 952.8 0.3 47
2019-10-18 12:00:00 19.1 6 Norte 9 Norte 0 953.4 0.9 49
2019-10-18 11:00:00 18.4 6 Nordeste 19 Sur 0 953.2 0.7 52
2019-10-18 10:00:00 16.4 12 Sudeste 21 Sur 0 952.5 0.1 54
2019-10-18 09:00:00 12.8 4 Sur 6 Sudoeste 0 952.5 0.3 69
2019-10-18 08:00:00 12.9 3 Sudoeste 8 Sur 0 952.5 0.1 67
2019-10-18 07:00:00 13.2 3 Sur 8 Sur 0 952.4 -0.3 60
2019-10-18 06:00:00 13.5 2 Oeste 9 Oeste 0 952.2 -0.7 59
2019-10-18 05:00:00 14.1 5 Sur 8 Sur 0 952.4 -0.7 55
2019-10-18 04:00:00 14.1 5 Oeste 7 Oeste 0 952.7 -0.9 51
2019-10-18 03:00:00 14.8 4 Sur 6 Sur 0 952.9 -0.8 48
2019-10-18 02:00:00 15.6 4 Sur 8 Sur 0 953.1 -0.4 44
2019-10-18 01:00:00 16 9 Sudoeste 12 Sudoeste 0 953.6 0.4 42
2019-10-18 00:00:00 17.2 5 Sudoeste 18 Sudoeste 0 953.7 1.1 38
2019-10-17 23:00:00 17.4 8 Sudoeste 15 Sudoeste 0 953.5 1.4 38
2019-10-17 22:00:00 16.5 4 Sudoeste 9 Oeste 0 953.2 1.3 40
2019-10-17 21:00:00 17.7 6 Sur 11 Sur 0 952.6 0.6 36
2019-10-17 20:00:00 18.4 4 Sur 13 Sudoeste 0 952.1 0.1 36
2019-10-17 19:00:00 20.5 4 Oeste 17 Norte 0 951.9 -0.5 31
2019-10-17 18:00:00 21.4 11 Noroeste 20 Norte 0 952 -0.9 29
2019-10-17 17:00:00 22 9 Noroeste 17 Norte 0 952 -1.7 30
2019-10-17 16:00:00 22.1 6 Norte 18 Norte 0 952.4 -1.8 31
2019-10-17 15:00:00 21.7 6 Norte 15 Norte 0 952.9 -1.6 32
2019-10-17 14:00:00 21.3 5 Nordeste 12 Norte 0 953.7 -0.9 32
2019-10-17 13:00:00 19.3 5 Nordeste 11 Este 0 954.2 0.4 34
2019-10-17 12:00:00 17.8 5 Sudeste 9 Nordeste 0 954.5 1.6 37
2019-10-17 11:00:00 16 5 Norte 7 Norte 0 954.6 2.1 43
2019-10-17 10:00:00 14.9 2 Sudeste 6 Sur 0 953.8 1.7 43
2019-10-17 09:00:00 11.3 6 Sur 7 Sudoeste 0 952.9 1.2 53
2019-10-17 08:00:00 10.6 3 Sur 6 Sur 0 952.5 0.5 52
2019-10-17 07:00:00 10.8 4 Sur 6 Oeste 0 952.1 -0.2 50
2019-10-17 06:00:00 11.5 3 Sudoeste 6 Sur 0 951.7 -0.8 49
2019-10-17 05:00:00 11.9 4 Sudoeste 6 Sudoeste 0 952 -0.3 47
2019-10-17 04:00:00 12.5 4 Sudoeste 9 Sur 0 952.3 -0.4 46
2019-10-17 03:00:00 12.8 3 Sudoeste 9 Sur 0 952.5 -0.5 42
2019-10-17 02:00:00 12.6 4 Sudoeste 7 Sudoeste 0 952.3 -0.5 45
2019-10-17 01:00:00 13.5 4 Sudoeste 13 Sudoeste 0 952.7 0.1 44
2019-10-17 00:00:00 13.7 5 Sudoeste 8 Sudoeste 0 953 0.8 42
2019-10-16 23:00:00 15.7 6 Sudoeste 13 Sudoeste 0 952.8 1.1 35
2019-10-16 22:00:00 16.8 9 Oeste 17 Oeste 0 952.6 1.3 30
2019-10-16 21:00:00 16.4 10 Oeste 13 Oeste 0 952.2 0.9 39
2019-10-16 20:00:00 16.3 8 Sudoeste 12 Oeste 0 951.7 0.1 41
2019-10-16 19:00:00 19.1 4 Oeste 14 Noroeste 0 951.3 -1 34
2019-10-16 18:00:00 20.4 6 Noroeste 15 Noroeste 0 951.3 -1.7 30
2019-10-16 17:00:00 21 3 Sudoeste 12 Noroeste 0 951.6 -2.2 31
2019-10-16 16:00:00 21.5 6 Norte 16 Norte 0 952.3 -2.1 32
2019-10-16 15:00:00 20.7 6 Norte 17 Noroeste 0 953 -1.8 36
2019-10-16 14:00:00 19.3 4 Este 15 Noroeste 0 953.8 -1 39
2019-10-16 13:00:00 17.8 6 Norte 12 Norte 0 954.4 0 42
2019-10-16 12:00:00 16.5 5 Norte 9 Nordeste 0 954.8 1 52
2019-10-16 11:00:00 13.9 2 Norte 7 Nordeste 0 954.8 1.1 60
2019-10-16 10:00:00 13.6 3 Norte 10 Sudeste 0 954.4 0.8 58
2019-10-16 09:00:00 12.1 8 Sudeste 14 Sur 0 953.8 0 54
2019-10-16 08:00:00 9.2 3 Sudoeste 5 Sudoeste 0 953.7 -0.2 66
2019-10-16 07:00:00 9.5 0 Calma 9 Sudoeste 0 953.6 -0.6 65
2019-10-16 06:00:00 9.9 4 Oeste 11 Sudoeste 0 953.8 -0.7 65
2019-10-16 05:00:00 10.4 5 Sur 9 Sur 0 953.9 -0.6 63
2019-10-16 04:00:00 10.6 4 Sur 9 Sur 0 954.2 -0.5 61
2019-10-16 03:00:00 11.3 4 Sur 10 Sudoeste 0 954.5 -0.4 60
2019-10-16 02:00:00 11.7 9 Sudoeste 10 Sudoeste 0 954.5 -0.3 59
2019-10-16 01:00:00 11.6 6 Sur 10 Sudoeste 0 954.7 0.1 56
2019-10-16 00:00:00 12.1 7 Sudoeste 9 Sudoeste 0 954.9 0.7 56
2019-10-15 23:00:00 11.9 4 Sudoeste 7 Sudoeste 0 954.8 1 56
2019-10-15 22:00:00 12.1 4 Sudoeste 9 Sudoeste 0 954.6 1 54
2019-10-15 21:00:00 13.3 8 Sudoeste 10 Sudoeste 0 954.2 0.8 48
2019-10-15 20:00:00 14 8 Sudoeste 9 Sudoeste 0 953.8 0.3 54
2019-10-15 19:00:00 16.3 2 Sudoeste 10 Noroeste 0 953.6 0 50
2019-10-15 18:00:00 17.3 5 Norte 14 Noroeste 0 953.4 -0.7 42
2019-10-15 17:00:00 17.7 6 Norte 17 Norte 0 953.5 -1.2 40
2019-10-15 16:00:00 18.3 5 Nordeste 15 Norte 0 953.6 -1.5 39
2019-10-15 15:00:00 17.3 5 Norte 14 Nordeste 0 954.1 -1.2 53
2019-10-15 14:00:00 17 5 Norte 17 Norte 0 954.7 -0.8 59
2019-10-15 13:00:00 16 5 Nordeste 12 Este 0 955.1 0.2 59
2019-10-15 12:00:00 14.9 5 Nordeste 12 Norte 0 955.3 1.3 66
2019-10-15 11:00:00 13.6 4 Sudeste 10 Este 0 955.5 1.9 73
2019-10-15 10:00:00 12.5 2 Nordeste 6 Sudoeste 0 954.9 1.3 75
2019-10-15 09:00:00 9.6 5 Sudoeste 11 Sudoeste 0 954 0.6 74
2019-10-15 08:00:00 8.9 7 Sudoeste 9 Sudoeste 0 953.6 0.2 78
2019-10-15 07:00:00 9.4 3 Sudoeste 11 Sudoeste 0 953.6 0 86
2019-10-15 06:00:00 10.7 6 Sudoeste 13 Sudoeste 0 953.4 -0.2 82
2019-10-15 05:00:00 11.2 6 Sudoeste 12 Oeste 0 953.4 0 83
2019-10-15 04:00:00 12 6 Oeste 13 Oeste 0 953.6 0.4 80
2019-10-15 03:00:00 11.7 9 Oeste 17 Sudoeste 0 953.6 0.7 81
2019-10-15 02:00:00 11.6 10 Oeste 19 Oeste 0 953.4 0.7 83
2019-10-15 01:00:00 11.6 14 Oeste 23 Noroeste 0 953.2 1.9 86
2019-10-15 00:00:00 11.5 14 Oeste 26 Oeste 0.8 952.9 2.2 89
2019-10-14 23:00:00 12.5 18 Noroeste 38 Noroeste 2.4 952.7 2.6 92
2019-10-14 22:00:00 16 14 Oeste 36 Sudoeste 0 951.3 1.9 67
2019-10-14 21:00:00 16.8 18 Oeste 37 Oeste 0 950.7 1.7 53
2019-10-14 20:00:00 17.8 17 Oeste 38 Noroeste 0 950.1 1.3 57
2019-10-14 19:00:00 19 15 Oeste 43 Oeste 0 949.4 0.6 57
2019-10-14 18:00:00 20.1 13 Oeste 44 Sudoeste 0 949 0.2 54
2019-10-14 17:00:00 21 17 Oeste 41 Oeste 0 948.8 -0.4 49
2019-10-14 16:00:00 21.3 16 Oeste 45 Oeste 0 948.8 -1.2 50
2019-10-14 15:00:00 22.2 14 Oeste 39 Noroeste 0 948.8 -1.3 51
2019-10-14 14:00:00 22 17 Noroeste 31 Noroeste 0 949.2 -0.5 51
2019-10-14 13:00:00 20.2 15 Noroeste 27 Noroeste 0 950 0.9 65
2019-10-14 12:00:00 18.5 12 Oeste 32 Oeste 0 950.1 1.6 75
2019-10-14 11:00:00 18.9 15 Noroeste 23 Noroeste 0 949.7 1.9 78
2019-10-14 10:00:00 18.1 5 Norte 23 Norte 0 949.1 1.5 81
2019-10-14 09:00:00 18 5 Sudoeste 26 Oeste 0 948.5 2 76
2019-10-14 08:00:00 17.9 9 Oeste 34 Sudoeste 0 947.8 1.8 75
2019-10-14 07:00:00 21.6 12 Sudoeste 35 Oeste 0 947.6 1.2 47
2019-10-14 06:00:00 25.8 19 Sur 49 Sudoeste 0 946.5 0.2 31
2019-10-14 05:00:00 24.1 11 Sur 28 Sudeste 0 946 -0.5 31
2019-10-14 04:00:00 21.5 18 Oeste 40 Oeste 0 946.4 -0.7 39
2019-10-14 03:00:00 25.2 6 Sudeste 28 Sudeste 0 946.3 -1.2 27
2019-10-14 02:00:00 25.6 16 Sudeste 28 Este 0 946.5 -1.3 25
2019-10-14 01:00:00 25.3 13 Sur 30 Sudeste 0 947.1 -0.7 25
2019-10-14 00:00:00 24.1 10 Sur 18 Sur 0 947.5 -0.4 27